Terminal Aerodrome Forecast
Issued by NWS Austin/San Antonio, TX

Home | Current Version | Previous Version | Text Only | Print | Product List | Glossary On
Versions: 1 2 3 4 5 6 7 8 9 10 11 12 13 14 15 16 17 18 19 20 21 22 23
967
FTUS44 KEWX 210934 AAA
TAFSAT
TAF AMD
KSAT 210934Z 2110/2212 21007KT P6SM BKN028
     FM211030 22003KT P6SM BKN018
     FM211300 23006KT P6SM BKN012 BKN200
     FM211600 24007KT P6SM SCT040 BKN200
     FM220200 34010KT P6SM BKN040=

USA.gov is the U.S. government's official web portal to all federal, state and local government web resources and services.